sensor_id;sensor_type;location;lat;lon;timestamp;P1;durP1;ratioP1;P2;durP2;ratioP2
69917;SDS011;57203;42.672;23.334;2022-08-19T00:00:08;4.3;;;3.1;;
69917;SDS011;57203;42.672;23.334;2022-08-19T00:01:08;5.1;;;3.3;;
69917;SDS011;57203;42.672;23.334;2022-08-19T00:03:08;5.5;;;3.6;;
69917;SDS011;57203;42.672;23.334;2022-08-19T00:04:09;5.5;;;3.8;;
69917;SDS011;57203;42.672;23.334;2022-08-19T00:05:09;4.3;;;3.3;;
69917;SDS011;57203;42.672;23.334;2022-08-19T00:08:09;6.0;;;3.5;;
69917;SDS011;57203;42.672;23.334;2022-08-19T00:09:10;4.8;;;3.6;;
69917;SDS011;57203;42.672;23.334;2022-08-19T00:10:10;9.6;;;3.4;;
69917;SDS011;57203;42.672;23.334;2022-08-19T00:11:10;4.2;;;3.3;;
69917;SDS011;57203;42.672;23.334;2022-08-19T00:12:10;4.1;;;3.2;;
69917;SDS011;57203;42.672;23.334;2022-08-19T00:13:10;4.1;;;3.5;;
69917;SDS011;57203;42.672;23.334;2022-08-19T00:14:11;4.1;;;3.0;;
69917;SDS011;57203;42.672;23.334;2022-08-19T00:15:12;3.8;;;2.9;;
69917;SDS011;57203;42.672;23.334;2022-08-19T00:16:11;3.8;;;3.3;;
69917;SDS011;57203;42.672;23.334;2022-08-19T00:17:11;5.5;;;3.1;;
69917;SDS011;57203;42.672;23.334;2022-08-19T00:18:12;4.1;;;3.4;;
69917;SDS011;57203;42.672;23.334;2022-08-19T00:20:13;4.6;;;3.1;;
69917;SDS011;57203;42.672;23.334;2022-08-19T00:21:12;3.6;;;3.5;;
69917;SDS011;57203;42.672;23.334;2022-08-19T00:22:13;4.9;;;3.4;;
69917;SDS011;57203;42.672;23.334;2022-08-19T00:23:13;3.3;;;3.0;;
69917;SDS011;57203;42.672;23.334;2022-08-19T00:25:13;5.1;;;3.4;;
69917;SDS011;57203;42.672;23.334;2022-08-19T00:26:14;5.3;;;3.2;;
69917;SDS011;57203;42.672;23.334;2022-08-19T00:27:14;6.1;;;3.3;;
69917;SDS011;57203;42.672;23.334;2022-08-19T00:28:14;4.3;;;3.5;;
69917;SDS011;57203;42.672;23.334;2022-08-19T00:30:15;4.5;;;3.3;;
69917;SDS011;57203;42.672;23.334;2022-08-19T00:31:15;4.5;;;3.1;;
69917;SDS011;57203;42.672;23.334;2022-08-19T00:32:15;4.9;;;2.7;;
69917;SDS011;57203;42.672;23.334;2022-08-19T00:33:15;3.3;;;3.2;;
69917;SDS011;57203;42.672;23.334;2022-08-19T00:34:15;3.4;;;3.1;;
69917;SDS011;57203;42.672;23.334;2022-08-19T00:35:16;4.4;;;3.4;;
69917;SDS011;57203;42.672;23.334;2022-08-19T00:37:16;5.0;;;3.5;;
69917;SDS011;57203;42.672;23.334;2022-08-19T00:38:16;4.5;;;3.8;;
69917;SDS011;57203;42.672;23.334;2022-08-19T00:39:17;7.7;;;3.2;;
69917;SDS011;57203;42.672;23.334;2022-08-19T00:40:17;4.0;;;3.6;;
69917;SDS011;57203;42.672;23.334;2022-08-19T00:41:18;5.4;;;3.7;;
69917;SDS011;57203;42.672;23.334;2022-08-19T00:42:18;3.8;;;3.3;;
69917;SDS011;57203;42.672;23.334;2022-08-19T00:43:18;3.8;;;3.1;;
69917;SDS011;57203;42.672;23.334;2022-08-19T00:44:19;3.9;;;2.9;;
69917;SDS011;57203;42.672;23.334;2022-08-19T00:45:19;3.9;;;3.7;;
69917;SDS011;57203;42.672;23.334;2022-08-19T00:46:18;5.5;;;3.3;;
69917;SDS011;57203;42.672;23.334;2022-08-19T00:47:19;4.4;;;3.4;;
69917;SDS011;57203;42.672;23.334;2022-08-19T00:48:19;5.0;;;3.5;;
69917;SDS011;57203;42.672;23.334;2022-08-19T00:50:20;5.1;;;3.7;;
69917;SDS011;57203;42.672;23.334;2022-08-19T00:51:20;3.6;;;3.2;;
69917;SDS011;57203;42.672;23.334;2022-08-19T00:52:21;5.2;;;3.6;;
69917;SDS011;57203;42.672;23.334;2022-08-19T00:53:21;5.2;;;3.3;;
69917;SDS011;57203;42.672;23.334;2022-08-19T00:55:21;5.9;;;3.9;;
69917;SDS011;57203;42.672;23.334;2022-08-19T00:56:21;3.8;;;3.4;;
69917;SDS011;57203;42.672;23.334;2022-08-19T00:57:22;3.8;;;3.7;;
69917;SDS011;57203;42.672;23.334;2022-08-19T00:58:22;4.3;;;3.5;;
69917;SDS011;57203;42.672;23.334;2022-08-19T00:59:21;4.3;;;3.3;;
69917;SDS011;57203;42.672;23.334;2022-08-19T01:00:22;4.3;;;3.6;;
69917;SDS011;57203;42.672;23.334;2022-08-19T01:01:22;4.7;;;3.0;;
69917;SDS011;57203;42.672;23.334;2022-08-19T01:02:22;3.9;;;3.1;;
69917;SDS011;57203;42.672;23.334;2022-08-19T01:04:23;4.5;;;3.5;;
69917;SDS011;57203;42.672;23.334;2022-08-19T01:05:24;4.5;;;3.7;;
69917;SDS011;57203;42.672;23.334;2022-08-19T01:06:23;6.2;;;3.6;;
69917;SDS011;57203;42.672;23.334;2022-08-19T01:07:23;9.5;;;3.8;;
69917;SDS011;57203;42.672;23.334;2022-08-19T01:08:24;9.5;;;3.3;;
69917;SDS011;57203;42.672;23.334;2022-08-19T01:09:24;5.1;;;3.5;;
69917;SDS011;57203;42.672;23.334;2022-08-19T01:10:25;5.5;;;3.6;;
69917;SDS011;57203;42.672;23.334;2022-08-19T01:11:24;4.6;;;3.5;;
69917;SDS011;57203;42.672;23.334;2022-08-19T01:12:25;6.0;;;3.1;;
69917;SDS011;57203;42.672;23.334;2022-08-19T01:13:26;4.7;;;3.6;;
69917;SDS011;57203;42.672;23.334;2022-08-19T01:15:27;5.3;;;3.9;;
69917;SDS011;57203;42.672;23.334;2022-08-19T01:16:26;4.9;;;4.1;;
69917;SDS011;57203;42.672;23.334;2022-08-19T01:17:26;6.0;;;3.5;;
69917;SDS011;57203;42.672;23.334;2022-08-19T01:18:26;5.6;;;4.0;;
69917;SDS011;57203;42.672;23.334;2022-08-19T01:19:27;5.6;;;3.6;;
69917;SDS011;57203;42.672;23.334;2022-08-19T01:20:26;4.4;;;3.7;;
69917;SDS011;57203;42.672;23.334;2022-08-19T01:23:27;4.3;;;3.8;;
69917;SDS011;57203;42.672;23.334;2022-08-19T01:24:27;5.1;;;3.9;;
69917;SDS011;57203;42.672;23.334;2022-08-19T01:25:29;5.9;;;4.1;;
69917;SDS011;57203;42.672;23.334;2022-08-19T01:26:28;6.0;;;3.5;;
69917;SDS011;57203;42.672;23.334;2022-08-19T01:27:36;6.6;;;4.1;;
69917;SDS011;57203;42.672;23.334;2022-08-19T01:28:28;5.9;;;3.8;;
69917;SDS011;57203;42.672;23.334;2022-08-19T01:29:28;4.5;;;3.9;;
69917;SDS011;57203;42.672;23.334;2022-08-19T01:30:30;5.0;;;3.5;;
69917;SDS011;57203;42.672;23.334;2022-08-19T01:31:29;4.1;;;4.3;;
69917;SDS011;57203;42.672;23.334;2022-08-19T01:32:29;5.9;;;3.9;;
69917;SDS011;57203;42.672;23.334;2022-08-19T01:33:29;4.3;;;3.5;;
69917;SDS011;57203;42.672;23.334;2022-08-19T01:34:30;4.3;;;4.0;;
69917;SDS011;57203;42.672;23.334;2022-08-19T01:36:31;5.1;;;3.9;;
69917;SDS011;57203;42.672;23.334;2022-08-19T01:37:40;10.0;;;4.4;;
69917;SDS011;57203;42.672;23.334;2022-08-19T01:38:30;6.5;;;3.5;;
69917;SDS011;57203;42.672;23.334;2022-08-19T01:39:31;5.8;;;4.3;;
69917;SDS011;57203;42.672;23.334;2022-08-19T01:40:32;5.8;;;4.2;;
69917;SDS011;57203;42.672;23.334;2022-08-19T01:41:31;6.1;;;4.4;;
69917;SDS011;57203;42.672;23.334;2022-08-19T01:42:31;5.5;;;4.6;;
69917;SDS011;57203;42.672;23.334;2022-08-19T01:43:32;5.1;;;4.1;;
69917;SDS011;57203;42.672;23.334;2022-08-19T01:44:32;6.2;;;4.8;;
69917;SDS011;57203;42.672;23.334;2022-08-19T01:45:33;6.2;;;4.1;;
69917;SDS011;57203;42.672;23.334;2022-08-19T01:46:32;6.3;;;4.3;;
69917;SDS011;57203;42.672;23.334;2022-08-19T01:47:33;6.3;;;4.4;;
69917;SDS011;57203;42.672;23.334;2022-08-19T01:48:34;4.6;;;3.6;;
69917;SDS011;57203;42.672;23.334;2022-08-19T01:49:33;5.7;;;3.8;;
69917;SDS011;57203;42.672;23.334;2022-08-19T01:50:34;5.7;;;3.6;;
69917;SDS011;57203;42.672;23.334;2022-08-19T01:51:34;4.5;;;4.0;;
69917;SDS011;57203;42.672;23.334;2022-08-19T01:52:34;6.5;;;4.2;;
69917;SDS011;57203;42.672;23.334;2022-08-19T01:53:34;7.0;;;3.8;;
69917;SDS011;57203;42.672;23.334;2022-08-19T01:54:34;4.5;;;3.7;;
69917;SDS011;57203;42.672;23.334;2022-08-19T01:55:35;5.6;;;4.1;;
69917;SDS011;57203;42.672;23.334;2022-08-19T01:56:35;4.3;;;3.9;;
69917;SDS011;57203;42.672;23.334;2022-08-19T01:57:35;4.3;;;4.0;;
69917;SDS011;57203;42.672;23.334;2022-08-19T01:58:36;7.4;;;3.4;;
69917;SDS011;57203;42.672;23.334;2022-08-19T01:59:35;6.9;;;4.3;;
69917;SDS011;57203;42.672;23.334;2022-08-19T02:00:36;6.9;;;4.7;;
69917;SDS011;57203;42.672;23.334;2022-08-19T02:01:36;10.1;;;4.4;;
69917;SDS011;57203;42.672;23.334;2022-08-19T02:02:36;5.4;;;4.0;;
69917;SDS011;57203;42.672;23.334;2022-08-19T02:04:37;7.1;;;4.1;;
69917;SDS011;57203;42.672;23.334;2022-08-19T02:05:37;5.2;;;3.9;;
69917;SDS011;57203;42.672;23.334;2022-08-19T02:06:37;5.2;;;4.0;;
69917;SDS011;57203;42.672;23.334;2022-08-19T02:07:38;5.1;;;3.9;;
69917;SDS011;57203;42.672;23.334;2022-08-19T02:08:38;5.1;;;4.1;;
69917;SDS011;57203;42.672;23.334;2022-08-19T02:09:38;4.8;;;3.9;;
69917;SDS011;57203;42.672;23.334;2022-08-19T02:10:39;4.8;;;4.2;;
69917;SDS011;57203;42.672;23.334;2022-08-19T02:11:38;6.0;;;4.3;;
69917;SDS011;57203;42.672;23.334;2022-08-19T02:12:38;6.0;;;4.1;;
69917;SDS011;57203;42.672;23.334;2022-08-19T02:13:39;5.1;;;4.2;;
69917;SDS011;57203;42.672;23.334;2022-08-19T02:14:39;5.7;;;4.1;;
69917;SDS011;57203;42.672;23.334;2022-08-19T02:15:39;4.9;;;4.3;;
69917;SDS011;57203;42.672;23.334;2022-08-19T02:16:39;5.9;;;4.0;;
69917;SDS011;57203;42.672;23.334;2022-08-19T02:19:40;4.7;;;3.9;;
69917;SDS011;57203;42.672;23.334;2022-08-19T02:20:40;4.7;;;4.3;;
69917;SDS011;57203;42.672;23.334;2022-08-19T02:21:40;6.3;;;4.1;;
69917;SDS011;57203;42.672;23.334;2022-08-19T02:22:41;7.0;;;3.9;;
69917;SDS011;57203;42.672;23.334;2022-08-19T02:23:41;6.5;;;4.2;;
69917;SDS011;57203;42.672;23.334;2022-08-19T02:24:41;6.3;;;3.9;;
69917;SDS011;57203;42.672;23.334;2022-08-19T02:25:42;6.3;;;4.0;;
69917;SDS011;57203;42.672;23.334;2022-08-19T02:26:41;6.8;;;4.2;;
69917;SDS011;57203;42.672;23.334;2022-08-19T02:27:42;5.6;;;4.3;;
69917;SDS011;57203;42.672;23.334;2022-08-19T02:28:42;6.2;;;4.0;;
69917;SDS011;57203;42.672;23.334;2022-08-19T02:29:42;6.2;;;4.6;;
69917;SDS011;57203;42.672;23.334;2022-08-19T02:30:43;6.2;;;4.0;;
69917;SDS011;57203;42.672;23.334;2022-08-19T02:31:43;6.9;;;4.3;;
69917;SDS011;57203;42.672;23.334;2022-08-19T02:32:43;6.2;;;4.4;;
69917;SDS011;57203;42.672;23.334;2022-08-19T02:33:43;6.2;;;4.2;;
69917;SDS011;57203;42.672;23.334;2022-08-19T02:34:43;5.0;;;4.3;;
69917;SDS011;57203;42.672;23.334;2022-08-19T02:35:44;6.7;;;4.4;;
69917;SDS011;57203;42.672;23.334;2022-08-19T02:36:44;5.9;;;4.0;;
69917;SDS011;57203;42.672;23.334;2022-08-19T02:37:44;8.4;;;4.8;;
69917;SDS011;57203;42.672;23.334;2022-08-19T02:38:45;8.4;;;5.4;;
69917;SDS011;57203;42.672;23.334;2022-08-19T02:39:45;7.5;;;4.4;;
69917;SDS011;57203;42.672;23.334;2022-08-19T02:40:48;4.9;;;4.1;;
69917;SDS011;57203;42.672;23.334;2022-08-19T02:41:45;6.5;;;4.5;;
69917;SDS011;57203;42.672;23.334;2022-08-19T02:42:45;6.5;;;3.9;;
69917;SDS011;57203;42.672;23.334;2022-08-19T02:43:46;4.3;;;4.3;;
69917;SDS011;57203;42.672;23.334;2022-08-19T02:44:46;5.0;;;3.7;;
69917;SDS011;57203;42.672;23.334;2022-08-19T02:46:48;5.0;;;4.2;;
69917;SDS011;57203;42.672;23.334;2022-08-19T02:47:46;6.9;;;4.6;;
69917;SDS011;57203;42.672;23.334;2022-08-19T02:48:47;6.6;;;4.4;;
69917;SDS011;57203;42.672;23.334;2022-08-19T02:49:47;6.6;;;3.8;;
69917;SDS011;57203;42.672;23.334;2022-08-19T02:50:48;5.3;;;3.6;;
69917;SDS011;57203;42.672;23.334;2022-08-19T02:51:47;5.3;;;3.7;;
69917;SDS011;57203;42.672;23.334;2022-08-19T02:52:48;4.4;;;4.1;;
69917;SDS011;57203;42.672;23.334;2022-08-19T02:53:48;5.4;;;4.0;;
69917;SDS011;57203;42.672;23.334;2022-08-19T02:55:49;7.0;;;3.6;;
69917;SDS011;57203;42.672;23.334;2022-08-19T02:56:49;5.7;;;3.9;;
69917;SDS011;57203;42.672;23.334;2022-08-19T02:57:49;5.0;;;4.4;;
69917;SDS011;57203;42.672;23.334;2022-08-19T02:58:49;6.1;;;3.5;;
69917;SDS011;57203;42.672;23.334;2022-08-19T02:59:50;4.2;;;3.8;;
69917;SDS011;57203;42.672;23.334;2022-08-19T03:01:50;5.2;;;3.6;;
69917;SDS011;57203;42.672;23.334;2022-08-19T03:02:50;5.2;;;4.4;;
69917;SDS011;57203;42.672;23.334;2022-08-19T03:03:50;4.6;;;3.6;;
69917;SDS011;57203;42.672;23.334;2022-08-19T03:04:51;4.1;;;3.7;;
69917;SDS011;57203;42.672;23.334;2022-08-19T03:05:51;4.9;;;4.1;;
69917;SDS011;57203;42.672;23.334;2022-08-19T03:06:51;4.9;;;4.6;;
69917;SDS011;57203;42.672;23.334;2022-08-19T03:07:51;6.4;;;4.5;;
69917;SDS011;57203;42.672;23.334;2022-08-19T03:08:52;6.8;;;4.6;;
69917;SDS011;57203;42.672;23.334;2022-08-19T03:09:52;8.0;;;4.5;;
69917;SDS011;57203;42.672;23.334;2022-08-19T03:10:52;5.6;;;4.0;;
69917;SDS011;57203;42.672;23.334;2022-08-19T03:11:52;5.6;;;3.8;;
69917;SDS011;57203;42.672;23.334;2022-08-19T03:12:52;6.0;;;4.1;;
69917;SDS011;57203;42.672;23.334;2022-08-19T03:13:53;7.9;;;3.8;;
69917;SDS011;57203;42.672;23.334;2022-08-19T03:14:53;4.7;;;4.2;;
69917;SDS011;57203;42.672;23.334;2022-08-19T03:16:53;5.2;;;3.9;;
69917;SDS011;57203;42.672;23.334;2022-08-19T03:17:54;5.2;;;4.0;;
69917;SDS011;57203;42.672;23.334;2022-08-19T03:18:55;6.8;;;3.9;;
69917;SDS011;57203;42.672;23.334;2022-08-19T03:19:54;4.6;;;4.3;;
69917;SDS011;57203;42.672;23.334;2022-08-19T03:20:55;8.5;;;4.2;;
69917;SDS011;57203;42.672;23.334;2022-08-19T03:23:55;6.5;;;6.5;;
69917;SDS011;57203;42.672;23.334;2022-08-19T03:24:55;8.5;;;4.6;;
69917;SDS011;57203;42.672;23.334;2022-08-19T03:25:55;5.3;;;4.4;;
69917;SDS011;57203;42.672;23.334;2022-08-19T03:26:56;5.3;;;4.8;;
69917;SDS011;57203;42.672;23.334;2022-08-19T03:27:56;7.1;;;4.4;;
69917;SDS011;57203;42.672;23.334;2022-08-19T03:29:56;6.0;;;5.0;;
69917;SDS011;57203;42.672;23.334;2022-08-19T03:30:57;7.6;;;4.3;;
69917;SDS011;57203;42.672;23.334;2022-08-19T03:31:57;4.9;;;4.2;;
69917;SDS011;57203;42.672;23.334;2022-08-19T03:32:57;4.9;;;4.3;;
69917;SDS011;57203;42.672;23.334;2022-08-19T03:33:57;4.9;;;4.8;;
69917;SDS011;57203;42.672;23.334;2022-08-19T03:34:57;7.1;;;4.4;;
69917;SDS011;57203;42.672;23.334;2022-08-19T03:36:58;5.4;;;4.3;;
69917;SDS011;57203;42.672;23.334;2022-08-19T03:37:58;6.6;;;4.5;;
69917;SDS011;57203;42.672;23.334;2022-08-19T03:38:59;6.6;;;4.7;;
69917;SDS011;57203;42.672;23.334;2022-08-19T03:39:59;6.1;;;4.9;;
69917;SDS011;57203;42.672;23.334;2022-08-19T03:41:02;5.9;;;4.2;;
69917;SDS011;57203;42.672;23.334;2022-08-19T03:41:59;5.0;;;4.4;;
69917;SDS011;57203;42.672;23.334;2022-08-19T03:42:59;6.1;;;4.6;;
69917;SDS011;57203;42.672;23.334;2022-08-19T03:43:59;5.5;;;4.7;;
69917;SDS011;57203;42.672;23.334;2022-08-19T03:45:00;5.7;;;4.5;;
69917;SDS011;57203;42.672;23.334;2022-08-19T03:46:01;5.7;;;4.0;;
69917;SDS011;57203;42.672;23.334;2022-08-19T03:47:00;5.1;;;4.6;;
69917;SDS011;57203;42.672;23.334;2022-08-19T03:48:01;6.3;;;4.3;;
69917;SDS011;57203;42.672;23.334;2022-08-19T03:49:02;6.3;;;4.6;;
69917;SDS011;57203;42.672;23.334;2022-08-19T03:50:01;6.0;;;4.0;;
69917;SDS011;57203;42.672;23.334;2022-08-19T03:51:01;5.8;;;4.5;;
69917;SDS011;57203;42.672;23.334;2022-08-19T03:52:02;7.6;;;4.8;;
69917;SDS011;57203;42.672;23.334;2022-08-19T03:53:02;7.6;;;4.3;;
69917;SDS011;57203;42.672;23.334;2022-08-19T03:55:02;6.0;;;4.6;;
69917;SDS011;57203;42.672;23.334;2022-08-19T03:56:02;6.3;;;4.4;;
69917;SDS011;57203;42.672;23.334;2022-08-19T03:57:03;6.5;;;4.7;;
69917;SDS011;57203;42.672;23.334;2022-08-19T03:58:03;5.2;;;4.5;;
69917;SDS011;57203;42.672;23.334;2022-08-19T03:59:03;6.4;;;4.8;;
69917;SDS011;57203;42.672;23.334;2022-08-19T04:00:03;5.5;;;4.5;;
69917;SDS011;57203;42.672;23.334;2022-08-19T04:01:06;6.0;;;4.8;;
69917;SDS011;57203;42.672;23.334;2022-08-19T04:02:06;6.4;;;4.7;;
69917;SDS011;57203;42.672;23.334;2022-08-19T04:03:04;7.2;;;4.2;;
69917;SDS011;57203;42.672;23.334;2022-08-19T04:05:05;4.7;;;4.8;;
69917;SDS011;57203;42.672;23.334;2022-08-19T04:06:12;6.1;;;4.3;;
69917;SDS011;57203;42.672;23.334;2022-08-19T04:07:05;6.0;;;4.1;;
69917;SDS011;57203;42.672;23.334;2022-08-19T04:08:05;6.8;;;4.4;;
69917;SDS011;57203;42.672;23.334;2022-08-19T04:09:06;5.9;;;4.2;;
69917;SDS011;57203;42.672;23.334;2022-08-19T04:10:06;5.1;;;4.6;;
69917;SDS011;57203;42.672;23.334;2022-08-19T04:11:07;5.9;;;4.4;;
69917;SDS011;57203;42.672;23.334;2022-08-19T04:12:06;6.6;;;5.0;;
69917;SDS011;57203;42.672;23.334;2022-08-19T04:13:06;7.6;;;4.3;;
69917;SDS011;57203;42.672;23.334;2022-08-19T04:14:07;5.5;;;4.0;;
69917;SDS011;57203;42.672;23.334;2022-08-19T04:15:07;4.4;;;4.4;;
69917;SDS011;57203;42.672;23.334;2022-08-19T04:16:08;7.5;;;4.5;;
69917;SDS011;57203;42.672;23.334;2022-08-19T04:17:07;7.0;;;4.8;;
69917;SDS011;57203;42.672;23.334;2022-08-19T04:19:07;7.6;;;4.6;;
69917;SDS011;57203;42.672;23.334;2022-08-19T04:20:08;5.7;;;4.5;;
69917;SDS011;57203;42.672;23.334;2022-08-19T04:21:08;5.9;;;4.3;;
69917;SDS011;57203;42.672;23.334;2022-08-19T04:22:08;5.8;;;4.7;;
69917;SDS011;57203;42.672;23.334;2022-08-19T04:23:08;6.6;;;5.3;;
69917;SDS011;57203;42.672;23.334;2022-08-19T04:24:09;6.8;;;5.1;;
69917;SDS011;57203;42.672;23.334;2022-08-19T04:25:09;7.7;;;5.2;;
69917;SDS011;57203;42.672;23.334;2022-08-19T04:26:12;7.7;;;4.7;;
69917;SDS011;57203;42.672;23.334;2022-08-19T04:27:09;6.7;;;5.1;;
69917;SDS011;57203;42.672;23.334;2022-08-19T04:29:11;6.5;;;4.9;;
69917;SDS011;57203;42.672;23.334;2022-08-19T04:30:11;7.3;;;4.6;;
69917;SDS011;57203;42.672;23.334;2022-08-19T04:31:12;7.0;;;4.7;;
69917;SDS011;57203;42.672;23.334;2022-08-19T04:32:11;7.1;;;5.1;;
69917;SDS011;57203;42.672;23.334;2022-08-19T04:33:12;7.1;;;5.2;;
69917;SDS011;57203;42.672;23.334;2022-08-19T04:34:12;7.0;;;5.1;;
69917;SDS011;57203;42.672;23.334;2022-08-19T04:35:11;7.9;;;5.0;;
69917;SDS011;57203;42.672;23.334;2022-08-19T04:36:15;7.4;;;4.9;;
69917;SDS011;57203;42.672;23.334;2022-08-19T04:37:12;8.6;;;4.3;;
69917;SDS011;57203;42.672;23.334;2022-08-19T04:38:12;8.9;;;5.4;;
69917;SDS011;57203;42.672;23.334;2022-08-19T04:39:13;8.9;;;4.8;;
69917;SDS011;57203;42.672;23.334;2022-08-19T04:40:12;6.2;;;5.2;;
69917;SDS011;57203;42.672;23.334;2022-08-19T04:42:13;7.0;;;4.8;;
69917;SDS011;57203;42.672;23.334;2022-08-19T04:43:13;7.0;;;5.0;;
69917;SDS011;57203;42.672;23.334;2022-08-19T04:44:13;9.5;;;5.5;;
69917;SDS011;57203;42.672;23.334;2022-08-19T04:45:14;9.0;;;4.9;;
69917;SDS011;57203;42.672;23.334;2022-08-19T04:46:14;7.0;;;5.4;;
69917;SDS011;57203;42.672;23.334;2022-08-19T04:47:14;6.5;;;4.9;;
69917;SDS011;57203;42.672;23.334;2022-08-19T04:48:14;5.4;;;4.3;;
69917;SDS011;57203;42.672;23.334;2022-08-19T04:49:15;6.3;;;4.6;;
69917;SDS011;57203;42.672;23.334;2022-08-19T04:50:15;6.3;;;4.9;;
69917;SDS011;57203;42.672;23.334;2022-08-19T04:51:15;6.7;;;4.5;;
69917;SDS011;57203;42.672;23.334;2022-08-19T04:52:15;7.9;;;4.4;;
69917;SDS011;57203;42.672;23.334;2022-08-19T04:53:15;7.2;;;5.2;;
69917;SDS011;57203;42.672;23.334;2022-08-19T04:54:16;8.4;;;5.4;;
69917;SDS011;57203;42.672;23.334;2022-08-19T04:55:16;8.4;;;5.3;;
69917;SDS011;57203;42.672;23.334;2022-08-19T04:56:17;6.5;;;5.7;;
69917;SDS011;57203;42.672;23.334;2022-08-19T04:57:16;8.0;;;4.8;;
69917;SDS011;57203;42.672;23.334;2022-08-19T04:58:17;7.0;;;4.4;;
69917;SDS011;57203;42.672;23.334;2022-08-19T04:59:17;5.1;;;5.0;;
69917;SDS011;57203;42.672;23.334;2022-08-19T05:00:17;8.1;;;5.3;;
69917;SDS011;57203;42.672;23.334;2022-08-19T05:01:19;5.9;;;4.9;;
69917;SDS011;57203;42.672;23.334;2022-08-19T05:02:18;5.9;;;4.4;;
69917;SDS011;57203;42.672;23.334;2022-08-19T05:03:18;6.5;;;4.6;;
69917;SDS011;57203;42.672;23.334;2022-08-19T05:05:18;5.4;;;4.0;;
69917;SDS011;57203;42.672;23.334;2022-08-19T05:06:19;5.4;;;4.4;;
69917;SDS011;57203;42.672;23.334;2022-08-19T05:07:19;6.4;;;4.5;;
69917;SDS011;57203;42.672;23.334;2022-08-19T05:08:20;8.3;;;4.4;;
69917;SDS011;57203;42.672;23.334;2022-08-19T05:09:19;7.7;;;4.5;;
69917;SDS011;57203;42.672;23.334;2022-08-19T05:10:19;6.6;;;4.1;;
69917;SDS011;57203;42.672;23.334;2022-08-19T05:11:21;6.6;;;4.9;;
69917;SDS011;57203;42.672;23.334;2022-08-19T05:12:20;7.9;;;4.6;;
69917;SDS011;57203;42.672;23.334;2022-08-19T05:13:20;6.1;;;4.5;;
69917;SDS011;57203;42.672;23.334;2022-08-19T05:14:20;5.2;;;5.0;;
69917;SDS011;57203;42.672;23.334;2022-08-19T05:15:21;6.3;;;4.6;;
69917;SDS011;57203;42.672;23.334;2022-08-19T05:16:21;5.8;;;5.0;;
69917;SDS011;57203;42.672;23.334;2022-08-19T05:17:21;8.5;;;4.6;;
69917;SDS011;57203;42.672;23.334;2022-08-19T05:18:21;7.2;;;4.8;;
69917;SDS011;57203;42.672;23.334;2022-08-19T05:19:22;7.8;;;4.5;;
69917;SDS011;57203;42.672;23.334;2022-08-19T05:20:22;6.1;;;4.8;;
69917;SDS011;57203;42.672;23.334;2022-08-19T05:21:22;6.7;;;4.7;;
69917;SDS011;57203;42.672;23.334;2022-08-19T05:22:22;6.7;;;4.8;;
69917;SDS011;57203;42.672;23.334;2022-08-19T05:23:22;7.7;;;4.7;;
69917;SDS011;57203;42.672;23.334;2022-08-19T05:24:23;5.7;;;4.9;;
69917;SDS011;57203;42.672;23.334;2022-08-19T05:25:23;7.5;;;4.4;;
69917;SDS011;57203;42.672;23.334;2022-08-19T05:26:23;6.8;;;4.8;;
69917;SDS011;57203;42.672;23.334;2022-08-19T05:28:24;7.0;;;4.4;;
69917;SDS011;57203;42.672;23.334;2022-08-19T05:29:25;5.3;;;4.9;;
69917;SDS011;57203;42.672;23.334;2022-08-19T05:31:24;6.6;;;4.6;;
69917;SDS011;57203;42.672;23.334;2022-08-19T05:32:25;7.2;;;4.8;;
69917;SDS011;57203;42.672;23.334;2022-08-19T05:33:25;8.2;;;4.7;;
69917;SDS011;57203;42.672;23.334;2022-08-19T05:34:25;8.6;;;4.8;;
69917;SDS011;57203;42.672;23.334;2022-08-19T05:35:25;8.6;;;4.5;;
69917;SDS011;57203;42.672;23.334;2022-08-19T05:36:26;5.8;;;4.3;;
69917;SDS011;57203;42.672;23.334;2022-08-19T05:37:26;6.1;;;4.2;;
69917;SDS011;57203;42.672;23.334;2022-08-19T05:39:27;5.9;;;4.7;;
69917;SDS011;57203;42.672;23.334;2022-08-19T05:40:27;5.2;;;4.0;;
69917;SDS011;57203;42.672;23.334;2022-08-19T05:41:27;6.1;;;4.2;;
69917;SDS011;57203;42.672;23.334;2022-08-19T05:42:27;6.1;;;4.3;;
69917;SDS011;57203;42.672;23.334;2022-08-19T05:43:27;7.2;;;4.5;;
69917;SDS011;57203;42.672;23.334;2022-08-19T05:44:29;5.9;;;4.3;;
69917;SDS011;57203;42.672;23.334;2022-08-19T05:45:28;6.3;;;4.0;;
69917;SDS011;57203;42.672;23.334;2022-08-19T05:46:28;6.3;;;3.7;;
69917;SDS011;57203;42.672;23.334;2022-08-19T05:47:28;4.8;;;4.2;;
69917;SDS011;57203;42.672;23.334;2022-08-19T05:48:28;7.9;;;4.3;;
69917;SDS011;57203;42.672;23.334;2022-08-19T05:49:29;7.9;;;4.6;;
69917;SDS011;57203;42.672;23.334;2022-08-19T05:50:29;6.9;;;4.3;;
69917;SDS011;57203;42.672;23.334;2022-08-19T05:51:29;5.6;;;4.4;;
69917;SDS011;57203;42.672;23.334;2022-08-19T05:52:29;6.8;;;4.7;;
69917;SDS011;57203;42.672;23.334;2022-08-19T05:53:30;6.4;;;4.6;;
69917;SDS011;57203;42.672;23.334;2022-08-19T05:54:30;6.4;;;4.5;;
69917;SDS011;57203;42.672;23.334;2022-08-19T05:55:30;5.3;;;4.3;;
69917;SDS011;57203;42.672;23.334;2022-08-19T05:56:31;5.3;;;4.9;;
69917;SDS011;57203;42.672;23.334;2022-08-19T05:57:31;9.3;;;4.2;;
69917;SDS011;57203;42.672;23.334;2022-08-19T05:58:31;4.6;;;4.7;;
69917;SDS011;57203;42.672;23.334;2022-08-19T05:59:31;5.9;;;4.6;;
69917;SDS011;57203;42.672;23.334;2022-08-19T06:00:31;7.8;;;4.5;;
69917;SDS011;57203;42.672;23.334;2022-08-19T06:01:32;10.1;;;5.2;;
69917;SDS011;57203;42.672;23.334;2022-08-19T06:02:32;5.9;;;4.5;;
69917;SDS011;57203;42.672;23.334;2022-08-19T06:03:32;5.9;;;4.7;;
69917;SDS011;57203;42.672;23.334;2022-08-19T06:04:32;7.1;;;4.6;;
69917;SDS011;57203;42.672;23.334;2022-08-19T06:06:33;5.7;;;4.5;;
69917;SDS011;57203;42.672;23.334;2022-08-19T06:07:33;5.4;;;4.6;;
69917;SDS011;57203;42.672;23.334;2022-08-19T06:08:34;5.4;;;3.9;;
69917;SDS011;57203;42.672;23.334;2022-08-19T06:09:33;5.2;;;4.6;;
69917;SDS011;57203;42.672;23.334;2022-08-19T06:10:34;6.9;;;4.8;;
69917;SDS011;57203;42.672;23.334;2022-08-19T06:11:35;7.2;;;4.3;;
69917;SDS011;57203;42.672;23.334;2022-08-19T06:12:34;6.3;;;4.1;;
69917;SDS011;57203;42.672;23.334;2022-08-19T06:13:34;5.3;;;4.6;;
69917;SDS011;57203;42.672;23.334;2022-08-19T06:15:35;6.5;;;4.5;;
69917;SDS011;57203;42.672;23.334;2022-08-19T06:17:36;6.7;;;4.8;;
69917;SDS011;57203;42.672;23.334;2022-08-19T06:18:36;8.3;;;4.5;;
69917;SDS011;57203;42.672;23.334;2022-08-19T06:19:36;5.1;;;4.0;;
69917;SDS011;57203;42.672;23.334;2022-08-19T06:20:36;5.1;;;4.2;;
69917;SDS011;57203;42.672;23.334;2022-08-19T06:21:37;5.5;;;3.9;;
69917;SDS011;57203;42.672;23.334;2022-08-19T06:22:37;4.6;;;4.3;;
69917;SDS011;57203;42.672;23.334;2022-08-19T06:23:37;6.0;;;3.9;;
69917;SDS011;57203;42.672;23.334;2022-08-19T06:24:37;7.5;;;4.4;;
69917;SDS011;57203;42.672;23.334;2022-08-19T06:25:38;7.5;;;4.0;;
69917;SDS011;57203;42.672;23.334;2022-08-19T06:26:39;5.0;;;4.1;;
69917;SDS011;57203;42.672;23.334;2022-08-19T06:27:38;5.0;;;4.0;;
69917;SDS011;57203;42.672;23.334;2022-08-19T06:28:38;6.8;;;4.6;;
69917;SDS011;57203;42.672;23.334;2022-08-19T06:29:38;6.8;;;4.1;;
69917;SDS011;57203;42.672;23.334;2022-08-19T06:30:39;5.7;;;4.2;;
69917;SDS011;57203;42.672;23.334;2022-08-19T06:31:41;7.0;;;4.1;;
69917;SDS011;57203;42.672;23.334;2022-08-19T06:32:39;6.4;;;3.7;;
69917;SDS011;57203;42.672;23.334;2022-08-19T06:33:40;6.4;;;3.8;;
69917;SDS011;57203;42.672;23.334;2022-08-19T06:34:40;5.5;;;4.0;;
69917;SDS011;57203;42.672;23.334;2022-08-19T06:35:40;5.7;;;3.5;;
69917;SDS011;57203;42.672;23.334;2022-08-19T06:36:41;5.3;;;4.5;;
69917;SDS011;57203;42.672;23.334;2022-08-19T06:38:41;6.6;;;4.1;;
69917;SDS011;57203;42.672;23.334;2022-08-19T06:39:42;6.8;;;3.9;;
69917;SDS011;57203;42.672;23.334;2022-08-19T06:40:41;5.3;;;3.8;;
69917;SDS011;57203;42.672;23.334;2022-08-19T06:41:42;6.2;;;4.3;;
69917;SDS011;57203;42.672;23.334;2022-08-19T06:42:42;6.7;;;4.5;;
69917;SDS011;57203;42.672;23.334;2022-08-19T06:44:43;7.0;;;4.6;;
69917;SDS011;57203;42.672;23.334;2022-08-19T06:45:42;7.0;;;3.9;;
69917;SDS011;57203;42.672;23.334;2022-08-19T06:47:43;10.4;;;4.5;;